Time;durP1;ratioP1;P1;durP2;ratioP2;P2;SDS_P1;SDS_P2;PMS_P1;PMS_P2;Temp;Humidity;BMP_temperature;BMP_pressure;BME280_temperature;BME280_humidity;BME280_pressure;Samples;Min_cycle;Max_cycle;Signal;HPM_P1;HPM_P2
2022/11/15 00:01:41;;;;;;;12.33;7.03;;;9.60;99.90;;;;;;20982277;28;20220;-70
2022/11/15 00:11:42;;;;;;;15.07;7.33;;;9.60;99.90;;;;;;20981297;28;20218;-70
2022/11/15 00:21:44;;;;;;;12.67;7.93;;;9.60;99.90;;;;;;20979113;28;20204;-71
2022/11/15 00:31:46;;;;;;;12.43;7.80;;;9.60;99.90;;;;;;20979429;28;20216;-71
2022/11/15 00:41:47;;;;;;;16.93;8.00;;;9.70;99.90;;;;;;20931954;28;20572;-70
2022/11/15 00:51:49;;;;;;;12.73;7.97;;;9.70;99.90;;;;;;20922666;28;20566;-71
2022/11/15 01:01:51;;;;;;;16.60;7.87;;;9.70;99.90;;;;;;20922494;28;20208;-72
2022/11/15 01:11:52;;;;;;;13.73;6.97;;;9.70;99.90;;;;;;20920700;28;20573;-72
2022/11/15 01:21:54;;;;;;;17.03;7.20;;;9.70;99.90;;;;;;20876940;28;20700;-69
2022/11/15 01:31:56;;;;;;;12.80;6.47;;;9.70;99.90;;;;;;20835083;28;20216;-71
2022/11/15 01:41:57;;;;;;;12.53;6.30;;;9.70;99.90;;;;;;20836933;28;20235;-72
2022/11/15 01:52:02;;;;;;;15.40;7.40;;;9.60;99.90;;;;;;20835615;28;20236;-72
2022/11/15 02:02:04;;;;;;;14.57;6.80;;;9.70;99.90;;;;;;20835450;28;20236;-72
2022/11/15 02:12:08;;;;;;;12.00;6.60;;;9.70;99.90;;;;;;20834601;28;20251;-71
2022/11/15 02:22:27;;;;;;;16.70;7.10;;;9.70;99.90;;;;;;20832678;28;20238;-72
2022/11/15 02:32:45;;;;;;;13.20;7.03;;;9.60;99.90;;;;;;20833108;28;20205;-72
2022/11/15 02:53:15;;;;;;;15.67;7.00;;;9.30;99.90;;;;;;20831644;28;20212;-72
2022/11/15 03:03:47;;;;;;;10.87;6.67;;;9.30;99.90;;;;;;20831151;28;20715;-71
2022/11/15 03:14:09;;;;;;;11.63;6.70;;;9.00;99.90;;;;;;20830427;28;20220;-71
2022/11/15 03:24:14;;;;;;;10.93;6.73;;;9.00;99.90;;;;;;20876441;28;20244;-71
2022/11/15 03:34:21;;;;;;;11.47;6.53;;;8.80;99.90;;;;;;20910773;28;20206;-71
2022/11/15 03:44:43;;;;;;;9.43;6.10;;;8.70;99.90;;;;;;20911725;28;20242;-71
2022/11/15 03:54:59;;;;;;;10.97;6.40;;;8.40;99.90;;;;;;20910118;28;20247;-71
2022/11/15 04:05:01;;;;;;;9.23;5.77;;;8.40;99.90;;;;;;20911095;28;20361;-71
2022/11/15 04:15:12;;;;;;;10.93;6.67;;;8.40;99.90;;;;;;20919862;28;20697;-71
2022/11/15 04:25:13;;;;;;;9.63;6.73;;;8.20;99.90;;;;;;20925525;28;20594;-70
2022/11/15 04:35:19;;;;;;;8.10;5.97;;;8.30;99.90;;;;;;20925408;28;20210;-71
2022/11/15 04:45:21;;;;;;;9.40;7.00;;;8.10;99.90;;;;;;20923699;28;20231;-71
2022/11/15 04:55:23;;;;;;;9.00;6.20;;;8.10;99.90;;;;;;20923131;28;20210;-70
2022/11/15 05:05:25;;;;;;;8.33;5.73;;;8.10;99.90;;;;;;20922375;28;20242;-70
2022/11/15 05:15:26;;;;;;;10.60;5.93;;;8.10;99.90;;;;;;20920965;28;20223;-71
2022/11/15 05:25:28;;;;;;;8.97;6.10;;;8.00;99.90;;;;;;20858987;28;20271;-71
2022/11/15 05:35:36;;;;;;;8.60;6.27;;;8.10;99.90;;;;;;20835489;28;20232;-70
2022/11/15 05:45:38;;;;;;;8.73;5.73;;;8.00;99.90;;;;;;20835832;28;20687;-71
2022/11/15 05:55:40;;;;;;;11.93;6.50;;;8.00;99.90;;;;;;20875386;28;20214;-71
2022/11/15 06:05:42;;;;;;;12.10;6.70;;;8.00;99.90;;;;;;20916915;28;20239;-71
2022/11/15 06:15:44;;;;;;;11.70;6.43;;;7.90;99.90;;;;;;20916121;28;20218;-71
2022/11/15 06:25:45;;;;;;;13.77;7.13;;;7.90;99.90;;;;;;20915402;28;20249;-71
2022/11/15 06:35:47;;;;;;;10.60;6.80;;;8.00;99.90;;;;;;20914050;28;20670;-70
2022/11/15 06:45:48;;;;;;;17.27;7.40;;;8.00;99.90;;;;;;20913638;28;20238;-70
2022/11/15 06:55:51;;;;;;;16.10;7.67;;;8.00;99.90;;;;;;20908903;28;20729;-70
2022/11/15 07:05:57;;;;;;;22.53;7.93;;;8.10;99.90;;;;;;20909293;28;20241;-71
2022/11/15 07:16:09;;;;;;;24.80;8.27;;;8.30;99.90;;;;;;20910956;28;20553;-70
2022/11/15 07:26:11;;;;;;;17.93;8.67;;;8.30;99.90;;;;;;20850800;28;20286;-70
2022/11/15 07:36:13;;;;;;;31.90;9.27;;;8.30;99.90;;;;;;20826475;28;20300;-70
2022/11/15 07:46:15;;;;;;;24.93;8.93;;;8.40;99.90;;;;;;20832473;28;20271;-71
2022/11/15 07:56:16;;;;;;;31.37;9.80;;;8.40;99.90;;;;;;20842223;28;20219;-71
2022/11/15 08:06:18;;;;;;;21.87;8.97;;;8.50;99.90;;;;;;20843677;28;20294;-71
2022/11/15 08:16:20;;;;;;;22.90;9.67;;;8.80;99.90;;;;;;20842502;28;20216;-70
2022/11/15 08:26:22;;;;;;;19.03;9.23;;;;;;;;;;20841299;28;20236;-71
2022/11/15 08:36:24;;;;;;;16.93;8.70;;;9.30;99.90;;;;;;20840873;28;20237;-71
2022/11/15 08:46:26;;;;;;;16.10;9.27;;;9.50;99.90;;;;;;20840467;28;20297;-70
2022/11/15 08:56:27;;;;;;;21.07;9.90;;;9.70;99.90;;;;;;20839145;28;20205;-71
2022/11/15 09:06:30;;;;;;;23.57;9.43;;;10.00;99.90;;;;;;20838810;28;20585;-71
2022/11/15 09:16:31;;;;;;;16.30;10.50;;;10.40;99.90;;;;;;20837109;28;20655;-71
2022/11/15 09:26:33;;;;;;;21.30;11.53;;;10.50;99.90;;;;;;20835051;28;20762;-71
2022/11/15 09:36:35;;;;;;;45.93;23.47;;;10.80;99.90;;;;;;20835426;28;20718;-71
2022/11/15 09:47:06;;;;;;;32.00;16.67;;;11.00;99.90;;;;;;20836135;28;20702;-71
2022/11/15 09:57:32;;;;;;;14.30;8.20;;;11.40;99.90;;;;;;20835160;28;20572;-71
2022/11/15 10:07:45;;;;;;;11.30;6.97;;;11.80;99.90;;;;;;20833586;28;20339;-71
2022/11/15 10:18:19;;;;;;;13.03;7.33;;;11.90;99.90;;;;;;20834014;28;20228;-71
2022/11/15 10:33:39;;;;;;;10.07;6.70;;;12.30;99.10;;;;;;20983801;28;20579;-71
2022/11/15 10:43:41;;;;;;;11.30;6.70;;;12.60;98.70;;;;;;20983911;28;20204;-71
2022/11/15 10:53:45;;;;;;;14.77;7.33;;;12.70;98.70;;;;;;20982359;28;20242;-71
2022/11/15 11:04:02;;;;;;;13.03;6.90;;;12.90;98.50;;;;;;20982463;28;20225;-71
2022/11/15 11:14:13;;;;;;;12.77;6.93;;;13.10;97.90;;;;;;20979925;28;20208;-71
2022/11/15 11:24:19;;;;;;;24.03;10.70;;;13.20;97.80;;;;;;20948847;28;20304;-71
2022/11/15 11:35:06;;;;;;;19.77;8.90;;;13.20;97.70;;;;;;20892930;28;20204;-71
2022/11/15 11:45:29;;;;;;;23.60;9.83;;;13.30;97.30;;;;;;20839523;28;20269;-71
2022/11/15 11:55:45;;;;;;;18.27;9.33;;;13.30;96.90;;;;;;20839122;28;20263;-71
2022/11/15 12:06:04;;;;;;;19.30;8.97;;;13.40;97.20;;;;;;20838375;28;20232;-71
2022/11/15 12:16:19;;;;;;;17.50;8.50;;;13.40;96.60;;;;;;20838030;28;20217;-71
2022/11/15 12:26:31;;;;;;;19.80;8.30;;;13.40;96.50;;;;;;20837213;28;20342;-72
2022/11/15 12:36:42;;;;;;;19.43;8.80;;;13.40;96.50;;;;;;20836716;28;20257;-71
2022/11/15 12:46:44;;;;;;;24.10;9.07;;;13.40;96.60;;;;;;20835536;28;20232;-71
2022/11/15 12:57:06;;;;;;;21.77;9.80;;;13.50;96.60;;;;;;20892435;28;20203;-71
2022/11/15 13:07:40;;;;;;;21.20;11.60;;;13.50;96.50;;;;;;20911327;28;20238;-74
2022/11/15 13:17:51;;;;;;;23.43;9.83;;;13.60;96.80;;;;;;20911567;28;20646;-71
2022/11/15 13:27:57;;;;;;;21.40;9.63;;;13.60;96.60;;;;;;20856359;28;20261;-71
2022/11/15 13:38:06;;;;;;;24.00;9.87;;;13.70;96.80;;;;;;20829579;28;20207;-71
2022/11/15 13:48:08;;;;;;;19.73;9.77;;;13.70;96.90;;;;;;20830851;28;20231;-71
2022/11/15 13:58:12;;;;;;;24.77;9.23;;;13.70;96.90;;;;;;20829441;28;20255;-71
2022/11/15 14:08:18;;;;;;;27.53;9.13;;;13.70;97.00;;;;;;20831056;28;20263;-71
2022/11/15 14:18:43;;;;;;;17.37;9.43;;;13.70;97.40;;;;;;20911846;28;20219;-70
2022/11/15 14:28:45;;;;;;;21.47;9.57;;;13.70;97.10;;;;;;20910413;28;20264;-73
2022/11/15 14:38:47;;;;;;;29.17;9.77;;;13.60;97.30;;;;;;20911242;28;20229;-69
2022/11/15 14:48:52;;;;;;;21.13;9.37;;;13.60;97.50;;;;;;20911588;28;20232;-68
2022/11/15 14:58:55;;;;;;;22.57;10.57;;;13.60;97.80;;;;;;20910537;28;20295;-69
2022/11/15 15:08:56;;;;;;;37.13;12.27;;;13.50;98.10;;;;;;20909814;28;20263;-72
2022/11/15 15:18:58;;;;;;;20.70;10.03;;;13.40;98.20;;;;;;20922815;28;20603;-74
2022/11/15 15:29:00;;;;;;;16.80;10.60;;;13.30;98.60;;;;;;20865996;28;20294;-71
2022/11/15 15:39:02;;;;;;;13.30;7.80;;;13.30;98.80;;;;;;20907083;28;20573;-68
2022/11/15 15:49:03;;;;;;;15.73;7.57;;;13.30;99.20;;;;;;20922759;28;20224;-70
2022/11/15 15:59:05;;;;;;;19.77;8.37;;;13.20;99.00;;;;;;20913847;28;20202;-71
2022/11/15 16:09:13;;;;;;;15.70;8.10;;;13.10;99.20;;;;;;20921031;28;20631;-70
2022/11/15 16:19:17;;;;;;;17.73;9.70;;;13.10;99.50;;;;;;20920636;28;20213;-70
2022/11/15 16:29:18;;;;;;;18.47;9.73;;;13.00;99.60;;;;;;20919413;28;20245;-70
2022/11/15 16:39:20;;;;;;;18.50;9.90;;;12.90;99.80;;;;;;20918591;28;20211;-70
2022/11/15 16:49:22;;;;;;;17.63;9.70;;;12.90;99.90;;;;;;20915718;28;20270;-70
2022/11/15 16:59:23;;;;;;;18.33;10.13;;;12.80;99.90;;;;;;20912382;28;20728;-70
2022/11/15 17:09:25;;;;;;;15.57;9.67;;;12.70;99.90;;;;;;20913888;28;20715;-70
2022/11/15 17:19:27;;;;;;;24.87;12.03;;;12.70;99.90;;;;;;20914596;28;20606;-73
2022/11/15 17:29:29;;;;;;;21.67;11.37;;;12.60;99.90;;;;;;20914382;28;20710;-70
2022/11/15 17:39:31;;;;;;;20.57;11.53;;;12.50;99.90;;;;;;20913008;28;20258;-71
2022/11/15 17:49:37;;;;;;;26.97;14.87;;;12.50;99.90;;;;;;20914497;28;20239;-73
2022/11/15 17:59:38;;;;;;;29.27;12.47;;;12.30;99.90;;;;;;20913077;28;20257;-65
2022/11/15 18:09:42;;;;;;;23.50;13.23;;;12.30;99.90;;;;;;20913045;28;20243;-65
2022/11/15 18:19:44;;;;;;;19.03;11.03;;;12.20;99.90;;;;;;20912400;28;20722;-67
2022/11/15 18:29:46;;;;;;;20.67;11.97;;;12.20;99.90;;;;;;20911541;28;20283;-71
2022/11/15 18:39:48;;;;;;;28.70;13.17;;;12.10;99.90;;;;;;20911679;28;20212;-71
2022/11/15 18:49:57;;;;;;;20.17;12.03;;;12.10;99.90;;;;;;20911003;28;20267;-73
2022/11/15 18:59:58;;;;;;;16.73;10.20;;;12.10;99.90;;;;;;20841887;28;20248;-73
2022/11/15 19:10:00;;;;;;;15.53;9.60;;;12.10;99.90;;;;;;20888552;28;20710;-73
2022/11/15 19:20:02;;;;;;;17.03;11.57;;;12.10;99.90;;;;;;20923152;28;20648;-73
2022/11/15 19:30:04;;;;;;;18.87;12.20;;;12.20;99.90;;;;;;20922711;28;20273;-75
2022/11/15 19:40:06;;;;;;;16.07;9.63;;;12.10;99.90;;;;;;20920811;28;20246;-75
2022/11/15 19:50:08;;;;;;;16.93;9.10;;;12.20;99.90;;;;;;20921161;28;20687;-73
2022/11/15 20:00:10;;;;;;;13.87;9.30;;;12.20;99.90;;;;;;20919304;28;20243;-75
2022/11/15 20:10:12;;;;;;;13.50;9.17;;;12.20;99.90;;;;;;20919774;28;20264;-76
2022/11/15 20:20:20;;;;;;;13.47;8.80;;;12.10;99.90;;;;;;20919041;28;20214;-74
2022/11/15 20:30:21;;;;;;;20.07;9.97;;;12.20;99.90;;;;;;20917618;28;20248;-74
2022/11/15 20:40:23;;;;;;;13.20;7.90;;;12.20;99.90;;;;;;20917534;28;20235;-74
2022/11/15 20:50:26;;;;;;;10.60;8.00;;;12.10;99.90;;;;;;20911775;28;20240;-75
2022/11/15 21:00:44;;;;;;;11.17;7.93;;;12.20;99.90;;;;;;20830262;28;20204;-76
2022/11/15 21:21:17;;;;;;;18.63;9.07;;;12.20;99.40;;;;;;20823611;28;20201;-74
2022/11/15 21:31:19;;;;;;;15.10;9.27;;;12.20;99.60;;;;;;20831211;28;20671;-74
2022/11/15 21:41:21;;;;;;;13.27;8.20;;;12.20;98.90;;;;;;20829102;28;20577;-74
2022/11/15 21:51:23;;;;;;;15.03;8.20;;;12.20;98.70;;;;;;20829734;28;20265;-74
2022/11/15 22:11:46;;;;;;;11.10;7.60;;;12.10;98.20;;;;;;20828412;28;20267;-75
2022/11/15 22:21:48;;;;;;;9.20;6.90;;;12.10;97.90;;;;;;20828073;28;20212;-74
2022/11/15 22:31:49;;;;;;;8.53;7.20;;;12.10;97.60;;;;;;20827582;28;20282;-74
2022/11/15 22:41:52;;;;;;;11.03;6.67;;;12.10;97.40;;;;;;20827376;28;20237;-75
2022/11/15 22:51:53;;;;;;;9.40;7.17;;;12.10;97.20;;;;;;20826306;28;20259;-75
2022/11/15 23:01:55;;;;;;;8.83;6.87;;;12.10;97.10;;;;;;20822696;28;20208;-75
2022/11/15 23:42:58;;;;;;;11.83;8.07;;;11.90;97.70;;;;;;20922166;28;20211;-73
2022/11/15 23:53:00;;;;;;;13.37;8.23;;;11.90;98.10;;;;;;20923280;28;20234;-73
